sensor_id;sensor_type;location;lat;lon;timestamp;temperature;humidity
11991;DHT22;6055;52.522;13.446;2022-07-18T00:01:32;19.60;93.50
11991;DHT22;6055;52.522;13.446;2022-07-18T00:03:58;19.60;93.10
11991;DHT22;6055;52.522;13.446;2022-07-18T00:06:24;19.60;92.70
11991;DHT22;6055;52.522;13.446;2022-07-18T00:08:49;19.60;92.80
11991;DHT22;6055;52.522;13.446;2022-07-18T00:11:15;19.60;92.50
11991;DHT22;6055;52.522;13.446;2022-07-18T00:13:40;19.70;92.20
11991;DHT22;6055;52.522;13.446;2022-07-18T00:16:06;19.70;92.20
11991;DHT22;6055;52.522;13.446;2022-07-18T00:18:32;19.70;92.30
11991;DHT22;6055;52.522;13.446;2022-07-18T00:20:58;19.70;92.60
11991;DHT22;6055;52.522;13.446;2022-07-18T00:23:23;19.70;92.10
11991;DHT22;6055;52.522;13.446;2022-07-18T00:25:49;19.70;92.10
11991;DHT22;6055;52.522;13.446;2022-07-18T00:28:14;19.70;91.90
11991;DHT22;6055;52.522;13.446;2022-07-18T00:30:40;19.70;92.30
11991;DHT22;6055;52.522;13.446;2022-07-18T00:33:06;19.80;91.80
11991;DHT22;6055;52.522;13.446;2022-07-18T00:35:32;19.80;91.90
11991;DHT22;6055;52.522;13.446;2022-07-18T00:37:57;19.70;91.80
11991;DHT22;6055;52.522;13.446;2022-07-18T00:40:23;19.70;91.80
11991;DHT22;6055;52.522;13.446;2022-07-18T00:42:49;19.70;92.00
11991;DHT22;6055;52.522;13.446;2022-07-18T00:45:14;19.70;92.00
11991;DHT22;6055;52.522;13.446;2022-07-18T00:47:40;19.60;92.10
11991;DHT22;6055;52.522;13.446;2022-07-18T00:50:06;19.50;92.30
11991;DHT22;6055;52.522;13.446;2022-07-18T00:52:33;19.50;92.40
11991;DHT22;6055;52.522;13.446;2022-07-18T00:54:59;19.40;92.30
11991;DHT22;6055;52.522;13.446;2022-07-18T00:57:26;19.40;92.60
11991;DHT22;6055;52.522;13.446;2022-07-18T00:59:52;19.40;92.60
11991;DHT22;6055;52.522;13.446;2022-07-18T01:02:37;19.30;92.70
11991;DHT22;6055;52.522;13.446;2022-07-18T01:05:03;19.30;92.60
11991;DHT22;6055;52.522;13.446;2022-07-18T01:07:29;19.30;92.70
11991;DHT22;6055;52.522;13.446;2022-07-18T01:09:54;19.30;92.80
11991;DHT22;6055;52.522;13.446;2022-07-18T01:12:20;19.30;92.90
11991;DHT22;6055;52.522;13.446;2022-07-18T01:14:46;19.20;93.10
11991;DHT22;6055;52.522;13.446;2022-07-18T01:17:19;19.20;93.10
11991;DHT22;6055;52.522;13.446;2022-07-18T01:19:45;19.10;93.10
11991;DHT22;6055;52.522;13.446;2022-07-18T01:22:12;19.10;93.30
11991;DHT22;6055;52.522;13.446;2022-07-18T01:24:40;19.10;93.40
11991;DHT22;6055;52.522;13.446;2022-07-18T01:27:06;19.00;93.60
11991;DHT22;6055;52.522;13.446;2022-07-18T01:29:32;19.00;93.80
11991;DHT22;6055;52.522;13.446;2022-07-18T01:32:04;18.90;93.70
11991;DHT22;6055;52.522;13.446;2022-07-18T01:34:30;18.90;93.90
11991;DHT22;6055;52.522;13.446;2022-07-18T01:36:55;18.90;94.10
11991;DHT22;6055;52.522;13.446;2022-07-18T01:39:21;19.00;94.40
11991;DHT22;6055;52.522;13.446;2022-07-18T01:42:04;18.90;94.20
11991;DHT22;6055;52.522;13.446;2022-07-18T01:44:30;18.90;94.30
11991;DHT22;6055;52.522;13.446;2022-07-18T01:46:56;18.90;94.60
11991;DHT22;6055;52.522;13.446;2022-07-18T01:49:23;18.90;94.70
11991;DHT22;6055;52.522;13.446;2022-07-18T01:51:52;18.80;94.80
11991;DHT22;6055;52.522;13.446;2022-07-18T01:54:22;18.80;95.00
11991;DHT22;6055;52.522;13.446;2022-07-18T01:56:49;18.70;94.90
11991;DHT22;6055;52.522;13.446;2022-07-18T01:59:15;18.70;95.10
11991;DHT22;6055;52.522;13.446;2022-07-18T02:01:40;18.70;95.30
11991;DHT22;6055;52.522;13.446;2022-07-18T02:04:06;18.60;95.30
11991;DHT22;6055;52.522;13.446;2022-07-18T02:06:31;18.60;95.90
11991;DHT22;6055;52.522;13.446;2022-07-18T02:08:57;18.60;96.00
11991;DHT22;6055;52.522;13.446;2022-07-18T02:11:22;18.50;96.30
11991;DHT22;6055;52.522;13.446;2022-07-18T02:13:48;18.50;96.00
11991;DHT22;6055;52.522;13.446;2022-07-18T02:16:14;18.50;96.40
11991;DHT22;6055;52.522;13.446;2022-07-18T02:18:40;18.40;96.30
11991;DHT22;6055;52.522;13.446;2022-07-18T02:21:06;18.30;97.20
11991;DHT22;6055;52.522;13.446;2022-07-18T02:23:33;18.30;97.10
11991;DHT22;6055;52.522;13.446;2022-07-18T02:25:58;18.20;97.30
11991;DHT22;6055;52.522;13.446;2022-07-18T02:28:24;18.20;97.20
11991;DHT22;6055;52.522;13.446;2022-07-18T02:30:49;18.20;97.90
11991;DHT22;6055;52.522;13.446;2022-07-18T02:33:15;18.20;99.00
11991;DHT22;6055;52.522;13.446;2022-07-18T02:35:42;18.20;98.60
11991;DHT22;6055;52.522;13.446;2022-07-18T02:38:08;18.20;98.90
11991;DHT22;6055;52.522;13.446;2022-07-18T02:40:33;18.20;98.30
11991;DHT22;6055;52.522;13.446;2022-07-18T02:42:59;18.10;98.80
11991;DHT22;6055;52.522;13.446;2022-07-18T02:45:25;18.10;98.70
11991;DHT22;6055;52.522;13.446;2022-07-18T02:47:50;18.10;99.10
11991;DHT22;6055;52.522;13.446;2022-07-18T02:50:16;18.10;98.60
11991;DHT22;6055;52.522;13.446;2022-07-18T02:52:42;18.00;98.30
11991;DHT22;6055;52.522;13.446;2022-07-18T02:55:09;18.00;99.10
11991;DHT22;6055;52.522;13.446;2022-07-18T02:57:34;18.00;99.40
11991;DHT22;6055;52.522;13.446;2022-07-18T03:00:00;18.00;99.40
11991;DHT22;6055;52.522;13.446;2022-07-18T03:02:26;18.00;99.50
11991;DHT22;6055;52.522;13.446;2022-07-18T03:04:51;18.00;99.40
11991;DHT22;6055;52.522;13.446;2022-07-18T03:07:17;17.90;99.80
11991;DHT22;6055;52.522;13.446;2022-07-18T03:09:42;18.00;99.90
11991;DHT22;6055;52.522;13.446;2022-07-18T03:12:08;18.00;99.80
11991;DHT22;6055;52.522;13.446;2022-07-18T03:14:34;18.00;99.90
11991;DHT22;6055;52.522;13.446;2022-07-18T03:16:59;17.90;99.90
11991;DHT22;6055;52.522;13.446;2022-07-18T03:19:25;17.90;99.90
11991;DHT22;6055;52.522;13.446;2022-07-18T03:21:51;17.90;99.90
11991;DHT22;6055;52.522;13.446;2022-07-18T03:24:17;17.90;99.90
11991;DHT22;6055;52.522;13.446;2022-07-18T03:26:43;17.90;99.90
11991;DHT22;6055;52.522;13.446;2022-07-18T03:29:09;17.90;99.90
11991;DHT22;6055;52.522;13.446;2022-07-18T03:31:35;17.90;99.90
11991;DHT22;6055;52.522;13.446;2022-07-18T03:34:00;17.90;99.90
11991;DHT22;6055;52.522;13.446;2022-07-18T03:36:26;17.90;99.90
11991;DHT22;6055;52.522;13.446;2022-07-18T03:38:52;17.90;99.90
11991;DHT22;6055;52.522;13.446;2022-07-18T03:41:17;17.90;99.90
11991;DHT22;6055;52.522;13.446;2022-07-18T03:43:43;17.90;99.90
11991;DHT22;6055;52.522;13.446;2022-07-18T03:46:08;17.90;99.90
11991;DHT22;6055;52.522;13.446;2022-07-18T03:48:35;17.90;99.90
11991;DHT22;6055;52.522;13.446;2022-07-18T03:51:02;17.90;99.90
11991;DHT22;6055;52.522;13.446;2022-07-18T03:53:27;17.90;99.90
11991;DHT22;6055;52.522;13.446;2022-07-18T03:55:53;17.90;99.90
11991;DHT22;6055;52.522;13.446;2022-07-18T03:58:18;17.90;99.90
11991;DHT22;6055;52.522;13.446;2022-07-18T04:00:44;17.90;99.90
11991;DHT22;6055;52.522;13.446;2022-07-18T04:03:09;17.80;99.90
11991;DHT22;6055;52.522;13.446;2022-07-18T04:05:35;17.90;99.90
11991;DHT22;6055;52.522;13.446;2022-07-18T04:08:00;17.80;99.90
11991;DHT22;6055;52.522;13.446;2022-07-18T04:10:26;17.80;99.90
11991;DHT22;6055;52.522;13.446;2022-07-18T04:12:54;17.80;99.90
11991;DHT22;6055;52.522;13.446;2022-07-18T04:15:21;17.90;99.90
11991;DHT22;6055;52.522;13.446;2022-07-18T04:17:48;17.90;99.90
11991;DHT22;6055;52.522;13.446;2022-07-18T04:20:15;17.90;99.90
11991;DHT22;6055;52.522;13.446;2022-07-18T04:22:48;17.90;99.90
11991;DHT22;6055;52.522;13.446;2022-07-18T04:25:14;17.90;99.90
11991;DHT22;6055;52.522;13.446;2022-07-18T04:27:39;17.90;99.90
11991;DHT22;6055;52.522;13.446;2022-07-18T04:30:05;17.90;99.90
11991;DHT22;6055;52.522;13.446;2022-07-18T04:32:31;17.90;99.90
11991;DHT22;6055;52.522;13.446;2022-07-18T04:34:57;17.90;99.90
11991;DHT22;6055;52.522;13.446;2022-07-18T04:37:22;17.90;99.90
11991;DHT22;6055;52.522;13.446;2022-07-18T04:39:48;17.90;99.90
11991;DHT22;6055;52.522;13.446;2022-07-18T04:42:13;17.90;99.90
11991;DHT22;6055;52.522;13.446;2022-07-18T04:44:39;17.90;99.90
11991;DHT22;6055;52.522;13.446;2022-07-18T04:47:04;17.90;99.90
11991;DHT22;6055;52.522;13.446;2022-07-18T04:49:30;18.00;99.90
11991;DHT22;6055;52.522;13.446;2022-07-18T04:51:56;18.00;99.90
11991;DHT22;6055;52.522;13.446;2022-07-18T04:54:21;18.10;99.90
11991;DHT22;6055;52.522;13.446;2022-07-18T04:56:47;18.10;99.90
11991;DHT22;6055;52.522;13.446;2022-07-18T04:59:12;18.10;99.90
11991;DHT22;6055;52.522;13.446;2022-07-18T05:01:38;18.20;99.90
11991;DHT22;6055;52.522;13.446;2022-07-18T05:04:04;18.20;99.90
11991;DHT22;6055;52.522;13.446;2022-07-18T05:06:30;18.20;99.90
11991;DHT22;6055;52.522;13.446;2022-07-18T05:08:55;18.20;99.90
11991;DHT22;6055;52.522;13.446;2022-07-18T05:11:21;18.30;99.90
11991;DHT22;6055;52.522;13.446;2022-07-18T05:13:46;18.30;99.90
11991;DHT22;6055;52.522;13.446;2022-07-18T05:16:12;18.30;99.90
11991;DHT22;6055;52.522;13.446;2022-07-18T05:18:37;18.30;99.90
11991;DHT22;6055;52.522;13.446;2022-07-18T05:21:03;18.30;99.90
11991;DHT22;6055;52.522;13.446;2022-07-18T05:23:28;18.40;99.90
11991;DHT22;6055;52.522;13.446;2022-07-18T05:25:54;18.40;99.90
11991;DHT22;6055;52.522;13.446;2022-07-18T05:28:20;18.40;99.90
11991;DHT22;6055;52.522;13.446;2022-07-18T05:30:45;18.50;99.90
11991;DHT22;6055;52.522;13.446;2022-07-18T05:33:10;18.50;99.90
11991;DHT22;6055;52.522;13.446;2022-07-18T05:35:36;18.50;99.90
11991;DHT22;6055;52.522;13.446;2022-07-18T05:38:02;18.60;99.90
11991;DHT22;6055;52.522;13.446;2022-07-18T05:40:28;18.70;99.90
11991;DHT22;6055;52.522;13.446;2022-07-18T05:42:53;18.60;99.90
11991;DHT22;6055;52.522;13.446;2022-07-18T05:45:19;18.70;99.90
11991;DHT22;6055;52.522;13.446;2022-07-18T05:47:44;18.80;99.90
11991;DHT22;6055;52.522;13.446;2022-07-18T05:50:10;18.80;99.90
11991;DHT22;6055;52.522;13.446;2022-07-18T05:52:36;18.80;99.90
11991;DHT22;6055;52.522;13.446;2022-07-18T05:55:02;18.90;99.90
11991;DHT22;6055;52.522;13.446;2022-07-18T05:57:28;18.90;99.90
11991;DHT22;6055;52.522;13.446;2022-07-18T05:59:53;19.00;99.90
11991;DHT22;6055;52.522;13.446;2022-07-18T06:02:19;19.00;99.90
11991;DHT22;6055;52.522;13.446;2022-07-18T06:04:45;19.10;99.90
11991;DHT22;6055;52.522;13.446;2022-07-18T06:07:10;19.10;99.90
11991;DHT22;6055;52.522;13.446;2022-07-18T06:09:36;19.20;99.90
11991;DHT22;6055;52.522;13.446;2022-07-18T06:12:02;19.20;99.90
11991;DHT22;6055;52.522;13.446;2022-07-18T06:14:29;19.30;99.90
11991;DHT22;6055;52.522;13.446;2022-07-18T06:16:55;19.30;99.90
11991;DHT22;6055;52.522;13.446;2022-07-18T06:19:21;19.40;99.90
11991;DHT22;6055;52.522;13.446;2022-07-18T06:21:47;19.40;99.90
11991;DHT22;6055;52.522;13.446;2022-07-18T06:24:13;19.50;99.90
11991;DHT22;6055;52.522;13.446;2022-07-18T06:26:39;19.50;99.90
11991;DHT22;6055;52.522;13.446;2022-07-18T06:29:04;19.60;99.50
11991;DHT22;6055;52.522;13.446;2022-07-18T06:31:30;19.60;99.30
11991;DHT22;6055;52.522;13.446;2022-07-18T06:33:55;19.80;99.00
11991;DHT22;6055;52.522;13.446;2022-07-18T06:36:21;19.80;98.10
11991;DHT22;6055;52.522;13.446;2022-07-18T06:38:50;19.90;98.40
11991;DHT22;6055;52.522;13.446;2022-07-18T06:41:16;19.90;98.20
11991;DHT22;6055;52.522;13.446;2022-07-18T06:43:41;20.10;97.80
11991;DHT22;6055;52.522;13.446;2022-07-18T06:46:07;20.10;97.30
11991;DHT22;6055;52.522;13.446;2022-07-18T06:48:33;20.20;97.30
11991;DHT22;6055;52.522;13.446;2022-07-18T06:51:03;20.20;97.10
11991;DHT22;6055;52.522;13.446;2022-07-18T06:53:30;20.30;96.70
11991;DHT22;6055;52.522;13.446;2022-07-18T06:55:56;20.30;97.50
11991;DHT22;6055;52.522;13.446;2022-07-18T06:58:21;20.30;96.30
11991;DHT22;6055;52.522;13.446;2022-07-18T07:00:47;20.40;96.70
11991;DHT22;6055;52.522;13.446;2022-07-18T07:03:13;20.40;96.10
11991;DHT22;6055;52.522;13.446;2022-07-18T07:05:38;20.50;95.80
11991;DHT22;6055;52.522;13.446;2022-07-18T07:08:04;20.60;95.70
11991;DHT22;6055;52.522;13.446;2022-07-18T07:10:30;20.60;94.70
11991;DHT22;6055;52.522;13.446;2022-07-18T07:12:55;20.70;95.00
11991;DHT22;6055;52.522;13.446;2022-07-18T07:15:23;20.70;94.60
11991;DHT22;6055;52.522;13.446;2022-07-18T07:17:49;20.70;94.70
11991;DHT22;6055;52.522;13.446;2022-07-18T07:20:15;20.70;94.90
11991;DHT22;6055;52.522;13.446;2022-07-18T07:22:49;20.70;94.70
11991;DHT22;6055;52.522;13.446;2022-07-18T07:25:16;20.70;94.50
11991;DHT22;6055;52.522;13.446;2022-07-18T07:27:42;20.80;94.10
11991;DHT22;6055;52.522;13.446;2022-07-18T07:30:08;20.80;94.30
11991;DHT22;6055;52.522;13.446;2022-07-18T07:32:38;20.80;94.20
11991;DHT22;6055;52.522;13.446;2022-07-18T07:35:05;20.80;94.20
11991;DHT22;6055;52.522;13.446;2022-07-18T07:37:38;20.90;94.10
11991;DHT22;6055;52.522;13.446;2022-07-18T07:40:04;20.90;94.10
11991;DHT22;6055;52.522;13.446;2022-07-18T07:42:30;20.90;94.00
11991;DHT22;6055;52.522;13.446;2022-07-18T07:44:56;20.90;93.90
11991;DHT22;6055;52.522;13.446;2022-07-18T07:47:21;20.90;93.50
11991;DHT22;6055;52.522;13.446;2022-07-18T07:49:47;20.90;93.40
11991;DHT22;6055;52.522;13.446;2022-07-18T07:52:12;21.00;93.30
11991;DHT22;6055;52.522;13.446;2022-07-18T07:54:39;21.00;93.40
11991;DHT22;6055;52.522;13.446;2022-07-18T07:57:05;21.10;93.20
11991;DHT22;6055;52.522;13.446;2022-07-18T07:59:31;21.20;93.60
11991;DHT22;6055;52.522;13.446;2022-07-18T08:01:58;21.20;93.00
11991;DHT22;6055;52.522;13.446;2022-07-18T08:04:23;21.30;92.70
11991;DHT22;6055;52.522;13.446;2022-07-18T08:06:49;21.40;92.30
11991;DHT22;6055;52.522;13.446;2022-07-18T08:09:14;21.50;92.30
11991;DHT22;6055;52.522;13.446;2022-07-18T08:11:40;21.50;92.30
11991;DHT22;6055;52.522;13.446;2022-07-18T08:14:05;21.60;92.20
11991;DHT22;6055;52.522;13.446;2022-07-18T08:16:31;21.70;92.20
11991;DHT22;6055;52.522;13.446;2022-07-18T08:18:56;21.90;91.80
11991;DHT22;6055;52.522;13.446;2022-07-18T08:21:22;22.00;91.10
11991;DHT22;6055;52.522;13.446;2022-07-18T08:23:47;22.20;91.10
11991;DHT22;6055;52.522;13.446;2022-07-18T08:26:13;22.30;90.40
11991;DHT22;6055;52.522;13.446;2022-07-18T08:28:39;22.50;90.40
11991;DHT22;6055;52.522;13.446;2022-07-18T08:31:05;22.90;90.00
11991;DHT22;6055;52.522;13.446;2022-07-18T08:33:30;23.20;88.40
11991;DHT22;6055;52.522;13.446;2022-07-18T08:35:56;23.60;88.80
11991;DHT22;6055;52.522;13.446;2022-07-18T08:38:21;23.90;86.60
11991;DHT22;6055;52.522;13.446;2022-07-18T08:40:47;24.00;85.90
11991;DHT22;6055;52.522;13.446;2022-07-18T08:43:14;24.10;85.20
11991;DHT22;6055;52.522;13.446;2022-07-18T08:45:42;24.10;84.90
11991;DHT22;6055;52.522;13.446;2022-07-18T08:48:08;24.10;85.20
11991;DHT22;6055;52.522;13.446;2022-07-18T08:50:34;24.30;85.00
11991;DHT22;6055;52.522;13.446;2022-07-18T08:53:00;24.60;84.80
11991;DHT22;6055;52.522;13.446;2022-07-18T08:55:26;25.00;83.30
11991;DHT22;6055;52.522;13.446;2022-07-18T08:57:55;25.10;80.90
11991;DHT22;6055;52.522;13.446;2022-07-18T09:00:21;25.30;79.00
11991;DHT22;6055;52.522;13.446;2022-07-18T09:02:47;25.70;79.50
11991;DHT22;6055;52.522;13.446;2022-07-18T09:05:21;26.00;78.00
11991;DHT22;6055;52.522;13.446;2022-07-18T09:07:47;26.70;77.70
11991;DHT22;6055;52.522;13.446;2022-07-18T09:10:13;27.60;74.60
11991;DHT22;6055;52.522;13.446;2022-07-18T09:12:39;28.30;74.00
11991;DHT22;6055;52.522;13.446;2022-07-18T09:15:19;28.80;70.30
11991;DHT22;6055;52.522;13.446;2022-07-18T09:17:45;29.00;69.60
11991;DHT22;6055;52.522;13.446;2022-07-18T09:20:12;28.20;70.00
11991;DHT22;6055;52.522;13.446;2022-07-18T09:22:43;27.90;69.30
11991;DHT22;6055;52.522;13.446;2022-07-18T09:25:14;27.40;70.10
11991;DHT22;6055;52.522;13.446;2022-07-18T09:30:28;27.00;72.60
11991;DHT22;6055;52.522;13.446;2022-07-18T09:33:15;27.50;72.60
11991;DHT22;6055;52.522;13.446;2022-07-18T09:35:45;28.20;70.40
11991;DHT22;6055;52.522;13.446;2022-07-18T09:38:20;28.60;70.40
11991;DHT22;6055;52.522;13.446;2022-07-18T09:40:51;28.90;70.00
11991;DHT22;6055;52.522;13.446;2022-07-18T09:43:19;29.00;69.00
11991;DHT22;6055;52.522;13.446;2022-07-18T09:45:55;28.30;69.90
11991;DHT22;6055;52.522;13.446;2022-07-18T09:48:23;28.50;68.70
11991;DHT22;6055;52.522;13.446;2022-07-18T09:51:05;29.20;69.10
11991;DHT22;6055;52.522;13.446;2022-07-18T09:56:06;30.10;66.20
11991;DHT22;6055;52.522;13.446;2022-07-18T09:58:52;29.80;65.30
11991;DHT22;6055;52.522;13.446;2022-07-18T10:01:18;29.50;65.60
11991;DHT22;6055;52.522;13.446;2022-07-18T10:03:44;29.50;65.80
11991;DHT22;6055;52.522;13.446;2022-07-18T10:06:10;29.90;64.70
11991;DHT22;6055;52.522;13.446;2022-07-18T10:08:36;30.20;63.80
11991;DHT22;6055;52.522;13.446;2022-07-18T10:11:05;30.50;63.10
11991;DHT22;6055;52.522;13.446;2022-07-18T10:13:31;30.50;62.10
11991;DHT22;6055;52.522;13.446;2022-07-18T10:15:57;30.60;61.90
11991;DHT22;6055;52.522;13.446;2022-07-18T10:18:26;30.70;62.00
11991;DHT22;6055;52.522;13.446;2022-07-18T10:23:44;31.00;60.40
11991;DHT22;6055;52.522;13.446;2022-07-18T10:26:26;30.90;61.80
11991;DHT22;6055;52.522;13.446;2022-07-18T10:31:22;31.20;60.20
11991;DHT22;6055;52.522;13.446;2022-07-18T10:33:48;30.80;60.70
11991;DHT22;6055;52.522;13.446;2022-07-18T10:36:15;30.20;60.80
11991;DHT22;6055;52.522;13.446;2022-07-18T10:39:13;30.20;61.30
11991;DHT22;6055;52.522;13.446;2022-07-18T11:00:12;29.70;61.80
11991;DHT22;6055;52.522;13.446;2022-07-18T11:02:44;29.50;60.70
11991;DHT22;6055;52.522;13.446;2022-07-18T11:16:17;30.80;58.70
11991;DHT22;6055;52.522;13.446;2022-07-18T11:21:23;31.20;58.90
11991;DHT22;6055;52.522;13.446;2022-07-18T11:26:27;32.10;58.00
11991;DHT22;6055;52.522;13.446;2022-07-18T11:29:01;32.20;58.40
11991;DHT22;6055;52.522;13.446;2022-07-18T11:31:28;32.40;57.60
11991;DHT22;6055;52.522;13.446;2022-07-18T11:33:55;32.50;56.20
11991;DHT22;6055;52.522;13.446;2022-07-18T11:36:22;32.70;56.90
11991;DHT22;6055;52.522;13.446;2022-07-18T11:38:57;32.40;55.80
11991;DHT22;6055;52.522;13.446;2022-07-18T11:41:23;32.30;55.50
11991;DHT22;6055;52.522;13.446;2022-07-18T11:43:51;32.10;55.70
11991;DHT22;6055;52.522;13.446;2022-07-18T11:46:20;31.40;56.00
11991;DHT22;6055;52.522;13.446;2022-07-18T11:48:56;31.10;57.20
11991;DHT22;6055;52.522;13.446;2022-07-18T11:51:22;31.40;55.90
11991;DHT22;6055;52.522;13.446;2022-07-18T11:53:53;32.00;57.50
11991;DHT22;6055;52.522;13.446;2022-07-18T11:56:21;32.60;56.00
11991;DHT22;6055;52.522;13.446;2022-07-18T11:58:48;32.70;55.90
11991;DHT22;6055;52.522;13.446;2022-07-18T12:01:14;33.10;55.00
11991;DHT22;6055;52.522;13.446;2022-07-18T12:03:43;33.00;54.80
11991;DHT22;6055;52.522;13.446;2022-07-18T12:06:14;33.10;55.10
11991;DHT22;6055;52.522;13.446;2022-07-18T12:08:49;33.20;53.20
11991;DHT22;6055;52.522;13.446;2022-07-18T12:11:29;33.20;53.80
11991;DHT22;6055;52.522;13.446;2022-07-18T12:14:00;33.00;53.30
11991;DHT22;6055;52.522;13.446;2022-07-18T12:19:21;33.30;54.00
11991;DHT22;6055;52.522;13.446;2022-07-18T12:27:17;33.30;53.20
11991;DHT22;6055;52.522;13.446;2022-07-18T12:32:46;31.80;53.30
11991;DHT22;6055;52.522;13.446;2022-07-18T12:37:41;31.00;54.40
11991;DHT22;6055;52.522;13.446;2022-07-18T12:40:10;30.70;54.50
11991;DHT22;6055;52.522;13.446;2022-07-18T12:42:38;30.00;55.20
11991;DHT22;6055;52.522;13.446;2022-07-18T12:45:05;29.60;57.00
11991;DHT22;6055;52.522;13.446;2022-07-18T12:47:32;29.60;61.10
11991;DHT22;6055;52.522;13.446;2022-07-18T12:49:58;29.90;60.00
11991;DHT22;6055;52.522;13.446;2022-07-18T12:52:23;30.00;58.50
11991;DHT22;6055;52.522;13.446;2022-07-18T12:54:50;30.20;57.00
11991;DHT22;6055;52.522;13.446;2022-07-18T12:57:16;30.40;57.10
11991;DHT22;6055;52.522;13.446;2022-07-18T12:59:42;30.30;57.20
11991;DHT22;6055;52.522;13.446;2022-07-18T13:02:08;30.60;56.10
11991;DHT22;6055;52.522;13.446;2022-07-18T13:04:34;30.50;55.20
11991;DHT22;6055;52.522;13.446;2022-07-18T13:06:59;30.90;55.50
11991;DHT22;6055;52.522;13.446;2022-07-18T13:09:25;31.30;54.80
11991;DHT22;6055;52.522;13.446;2022-07-18T13:11:50;31.40;55.20
11991;DHT22;6055;52.522;13.446;2022-07-18T13:14:17;31.50;56.00
11991;DHT22;6055;52.522;13.446;2022-07-18T13:16:43;31.30;55.30
11991;DHT22;6055;52.522;13.446;2022-07-18T13:19:14;30.90;55.50
11991;DHT22;6055;52.522;13.446;2022-07-18T13:21:41;30.70;57.00
11991;DHT22;6055;52.522;13.446;2022-07-18T13:24:07;30.50;56.90
11991;DHT22;6055;52.522;13.446;2022-07-18T13:26:32;30.30;57.20
11991;DHT22;6055;52.522;13.446;2022-07-18T13:28:58;30.20;56.10
11991;DHT22;6055;52.522;13.446;2022-07-18T13:31:24;30.20;56.50
11991;DHT22;6055;52.522;13.446;2022-07-18T13:33:49;29.80;55.40
11991;DHT22;6055;52.522;13.446;2022-07-18T13:36:18;29.80;57.40
11991;DHT22;6055;52.522;13.446;2022-07-18T13:38:45;29.70;56.70
11991;DHT22;6055;52.522;13.446;2022-07-18T13:41:11;29.80;57.10
11991;DHT22;6055;52.522;13.446;2022-07-18T13:43:38;29.80;57.00
11991;DHT22;6055;52.522;13.446;2022-07-18T13:46:06;29.60;54.60
11991;DHT22;6055;52.522;13.446;2022-07-18T13:48:32;29.50;55.60
11991;DHT22;6055;52.522;13.446;2022-07-18T13:50:57;29.50;58.30
11991;DHT22;6055;52.522;13.446;2022-07-18T13:53:23;29.50;55.40
11991;DHT22;6055;52.522;13.446;2022-07-18T13:55:48;29.50;56.40
11991;DHT22;6055;52.522;13.446;2022-07-18T13:58:14;29.60;56.50
11991;DHT22;6055;52.522;13.446;2022-07-18T14:00:39;29.70;55.40
11991;DHT22;6055;52.522;13.446;2022-07-18T14:03:05;29.90;55.80
11991;DHT22;6055;52.522;13.446;2022-07-18T14:05:31;30.20;54.60
11991;DHT22;6055;52.522;13.446;2022-07-18T14:07:57;30.30;54.20
11991;DHT22;6055;52.522;13.446;2022-07-18T14:10:23;30.30;53.40
11991;DHT22;6055;52.522;13.446;2022-07-18T14:12:48;30.20;53.60
11991;DHT22;6055;52.522;13.446;2022-07-18T14:15:14;30.20;54.70
11991;DHT22;6055;52.522;13.446;2022-07-18T14:17:40;30.20;54.50
11991;DHT22;6055;52.522;13.446;2022-07-18T14:20:06;30.20;54.80
11991;DHT22;6055;52.522;13.446;2022-07-18T14:22:33;30.40;54.30
11991;DHT22;6055;52.522;13.446;2022-07-18T14:24:59;30.30;54.40
11991;DHT22;6055;52.522;13.446;2022-07-18T14:27:24;30.20;55.10
11991;DHT22;6055;52.522;13.446;2022-07-18T14:29:50;30.20;53.70
11991;DHT22;6055;52.522;13.446;2022-07-18T14:32:16;30.20;54.80
11991;DHT22;6055;52.522;13.446;2022-07-18T14:34:41;30.30;55.20
11991;DHT22;6055;52.522;13.446;2022-07-18T14:37:07;30.40;54.70
11991;DHT22;6055;52.522;13.446;2022-07-18T14:39:33;30.30;56.30
11991;DHT22;6055;52.522;13.446;2022-07-18T14:41:58;30.40;56.60
11991;DHT22;6055;52.522;13.446;2022-07-18T14:44:24;30.60;55.20
11991;DHT22;6055;52.522;13.446;2022-07-18T14:46:50;30.90;53.30
11991;DHT22;6055;52.522;13.446;2022-07-18T14:49:16;31.20;54.40
11991;DHT22;6055;52.522;13.446;2022-07-18T14:51:41;31.70;54.50
11991;DHT22;6055;52.522;13.446;2022-07-18T14:54:07;31.90;52.10
11991;DHT22;6055;52.522;13.446;2022-07-18T14:56:34;32.10;52.40
11991;DHT22;6055;52.522;13.446;2022-07-18T14:59:00;31.90;51.90
11991;DHT22;6055;52.522;13.446;2022-07-18T15:01:25;31.90;52.80
11991;DHT22;6055;52.522;13.446;2022-07-18T15:03:51;31.70;53.00
11991;DHT22;6055;52.522;13.446;2022-07-18T15:06:17;31.40;53.10
11991;DHT22;6055;52.522;13.446;2022-07-18T15:08:42;31.20;53.50
11991;DHT22;6055;52.522;13.446;2022-07-18T15:11:07;30.90;52.80
11991;DHT22;6055;52.522;13.446;2022-07-18T15:13:33;30.80;53.90
11991;DHT22;6055;52.522;13.446;2022-07-18T15:15:59;30.70;53.80
11991;DHT22;6055;52.522;13.446;2022-07-18T15:18:24;30.80;54.10
11991;DHT22;6055;52.522;13.446;2022-07-18T15:20:50;30.60;53.00
11991;DHT22;6055;52.522;13.446;2022-07-18T15:23:15;30.40;53.70
11991;DHT22;6055;52.522;13.446;2022-07-18T15:25:41;30.10;54.10
11991;DHT22;6055;52.522;13.446;2022-07-18T15:28:06;29.80;54.50
11991;DHT22;6055;52.522;13.446;2022-07-18T15:30:32;29.50;53.50
11991;DHT22;6055;52.522;13.446;2022-07-18T15:32:57;29.40;54.90
11991;DHT22;6055;52.522;13.446;2022-07-18T15:35:23;29.30;54.80
11991;DHT22;6055;52.522;13.446;2022-07-18T15:37:48;29.10;55.10
11991;DHT22;6055;52.522;13.446;2022-07-18T15:40:14;29.00;54.60
11991;DHT22;6055;52.522;13.446;2022-07-18T15:42:40;29.10;56.80
11991;DHT22;6055;52.522;13.446;2022-07-18T15:45:06;29.20;56.10
11991;DHT22;6055;52.522;13.446;2022-07-18T15:47:31;29.30;55.40
11991;DHT22;6055;52.522;13.446;2022-07-18T15:49:57;29.40;54.90
11991;DHT22;6055;52.522;13.446;2022-07-18T15:52:22;29.50;55.20
11991;DHT22;6055;52.522;13.446;2022-07-18T15:54:48;29.60;55.20
11991;DHT22;6055;52.522;13.446;2022-07-18T15:57:14;29.70;54.90
11991;DHT22;6055;52.522;13.446;2022-07-18T15:59:40;29.60;54.60
11991;DHT22;6055;52.522;13.446;2022-07-18T16:02:05;29.50;54.70
11991;DHT22;6055;52.522;13.446;2022-07-18T16:04:32;29.60;55.00
11991;DHT22;6055;52.522;13.446;2022-07-18T16:06:58;29.60;54.30
11991;DHT22;6055;52.522;13.446;2022-07-18T16:09:23;29.80;55.80
11991;DHT22;6055;52.522;13.446;2022-07-18T16:11:49;30.10;55.00
11991;DHT22;6055;52.522;13.446;2022-07-18T16:14:14;30.20;53.30
11991;DHT22;6055;52.522;13.446;2022-07-18T16:16:40;30.20;54.40
11991;DHT22;6055;52.522;13.446;2022-07-18T16:19:07;30.20;53.80
11991;DHT22;6055;52.522;13.446;2022-07-18T16:21:32;30.20;53.70
11991;DHT22;6055;52.522;13.446;2022-07-18T16:23:58;30.10;54.40
11991;DHT22;6055;52.522;13.446;2022-07-18T16:26:24;30.10;54.50